Time;durP1;ratioP1;P1;durP2;ratioP2;P2;SDS_P1;SDS_P2;PMS_P1;PMS_P2;Temp;Humidity;BMP_temperature;BMP_pressure;BME280_temperature;BME280_humidity;BME280_pressure;Samples;Min_cycle;Max_cycle;Signal;HPM_P1;HPM_P2
2023/02/09 00:00:19;;;;;;;23.88;15.90;;;-0.50;99.90;;;;;;5032919;28;20225;-50
2023/02/09 00:02:46;;;;;;;27.10;17.17;;;-0.50;99.90;;;;;;5033049;28;20222;-50
2023/02/09 00:05:13;;;;;;;30.58;16.60;;;-0.50;99.90;;;;;;5033300;28;20190;-50
2023/02/09 00:07:41;;;;;;;27.50;15.60;;;-0.30;99.90;;;;;;5032815;28;20186;-50
2023/02/09 00:10:08;;;;;;;25.85;17.05;;;-0.50;99.90;;;;;;5032563;28;20266;-50
2023/02/09 00:15:20;;;;;;;22.42;15.25;;;-0.50;99.90;;;;;;5032872;28;20196;-50
2023/02/09 00:17:47;;;;;;;23.13;16.38;;;-0.50;99.90;;;;;;5032962;28;20615;-50
2023/02/09 00:20:14;;;;;;;25.80;15.90;;;-0.60;99.90;;;;;;5032461;28;20203;-50
2023/02/09 00:22:42;;;;;;;27.95;16.40;;;-0.60;99.90;;;;;;5032562;28;20289;-51
2023/02/09 00:25:08;;;;;;;22.25;15.52;;;-0.60;99.90;;;;;;5014508;28;20205;-49
2023/02/09 00:27:35;;;;;;;25.00;15.30;;;-0.40;99.90;;;;;;5032650;28;20267;-49
2023/02/09 00:30:04;;;;;;;21.10;14.07;;;-0.50;99.90;;;;;;5014456;28;20724;-50
2023/02/09 00:32:32;;;;;;;23.63;15.57;;;-0.50;99.90;;;;;;5014920;28;20283;-50
2023/02/09 00:34:58;;;;;;;27.17;16.45;;;-0.60;99.90;;;;;;5032640;28;20208;-50
2023/02/09 00:37:25;;;;;;;26.63;16.50;;;-1.20;99.90;;;;;;5014835;28;20582;-50
2023/02/09 00:39:53;;;;;;;24.35;15.15;;;-0.50;99.90;;;;;;5032097;28;20199;-49
2023/02/09 00:42:20;;;;;;;28.67;16.30;;;-0.70;99.90;;;;;;5032472;28;20228;-49
2023/02/09 00:44:46;;;;;;;23.52;15.13;;;-0.50;99.90;;;;;;5032579;28;20193;-49
2023/02/09 00:47:14;;;;;;;28.42;16.10;;;-0.50;99.90;;;;;;5032573;28;20202;-50
2023/02/09 00:49:41;;;;;;;23.90;15.70;;;-1.00;99.90;;;;;;5014366;28;20227;-49
2023/02/09 00:52:08;;;;;;;27.05;16.05;;;-0.80;99.90;;;;;;5032269;28;20222;-50
2023/02/09 00:54:34;;;;;;;21.80;14.70;;;-0.70;99.90;;;;;;5032526;28;20213;-51
2023/02/09 00:57:04;;;;;;;27.50;16.05;;;-0.70;99.90;;;;;;5014527;28;20227;-50
2023/02/09 00:59:33;;;;;;;27.50;14.95;;;-0.70;99.90;;;;;;5031880;28;20200;-50
2023/02/09 01:02:00;;;;;;;30.75;16.83;;;-0.70;99.90;;;;;;5032054;28;20220;-49
2023/02/09 01:04:27;;;;;;;25.25;15.77;;;-0.90;99.90;;;;;;5032011;28;20193;-50
2023/02/09 01:06:54;;;;;;;21.27;14.10;;;-0.80;99.90;;;;;;5030745;28;20215;-50
2023/02/09 01:09:20;;;;;;;23.80;15.70;;;-0.70;99.90;;;;;;5031715;28;20221;-49
2023/02/09 01:11:47;;;;;;;28.30;16.42;;;-0.80;99.90;;;;;;5033027;28;20228;-50
2023/02/09 01:14:15;;;;;;;25.00;15.90;;;-0.90;99.90;;;;;;5032638;28;20206;-50
2023/02/09 01:16:42;;;;;;;23.15;15.10;;;-0.70;99.90;;;;;;5032439;28;20202;-49
2023/02/09 01:19:11;;;;;;;28.50;15.32;;;-0.70;99.90;;;;;;5032101;28;20215;-49
2023/02/09 01:21:38;;;;;;;29.80;16.25;;;-0.80;99.90;;;;;;5032258;28;20220;-50
2023/02/09 01:24:05;;;;;;;22.52;15.25;;;-0.90;99.90;;;;;;5032082;28;20194;-50
2023/02/09 01:26:32;;;;;;;24.70;14.85;;;-0.60;99.90;;;;;;5030671;28;20215;-50
2023/02/09 01:28:59;;;;;;;21.63;14.30;;;-0.90;99.90;;;;;;5031667;28;20625;-50
2023/02/09 01:31:29;;;;;;;24.20;16.02;;;-0.70;99.90;;;;;;5014111;28;20216;-50
2023/02/09 01:33:57;;;;;;;25.08;16.08;;;-0.80;99.90;;;;;;5031997;28;20201;-50
2023/02/09 01:36:27;;;;;;;23.02;14.50;;;-1.00;99.90;;;;;;5032038;28;20216;-50
2023/02/09 01:38:54;;;;;;;23.10;15.60;;;-0.80;99.90;;;;;;5035274;28;20195;-50
2023/02/09 01:41:22;;;;;;;23.38;13.90;;;-0.90;99.90;;;;;;5035758;28;20212;-49
2023/02/09 01:43:58;;;;;;;23.85;14.20;;;-1.00;99.90;;;;;;5017938;28;20686;-50
2023/02/09 01:46:28;;;;;;;22.77;13.57;;;-1.00;99.90;;;;;;5035762;28;20533;-50
2023/02/09 01:49:03;;;;;;;23.08;14.40;;;-1.00;99.90;;;;;;5017624;28;20272;-51
2023/02/09 01:51:32;;;;;;;23.25;15.20;;;-0.90;99.90;;;;;;5035611;28;20212;-50
2023/02/09 01:53:59;;;;;;;24.77;15.10;;;-0.80;99.90;;;;;;5035637;28;20200;-50
2023/02/09 01:56:30;;;;;;;23.90;14.88;;;-1.00;99.90;;;;;;5035567;28;20688;-50
2023/02/09 01:58:57;;;;;;;23.95;15.35;;;-1.00;99.90;;;;;;5017893;28;20208;-50
2023/02/09 02:01:25;;;;;;;27.55;15.68;;;-1.00;99.90;;;;;;5035484;28;20293;-50
2023/02/09 02:03:54;;;;;;;22.90;14.18;;;-0.90;99.90;;;;;;5035390;28;20204;-51
2023/02/09 02:06:20;;;;;;;18.73;12.95;;;-0.80;99.90;;;;;;5035329;28;20616;-50
2023/02/09 02:08:52;;;;;;;24.42;14.02;;;-0.90;99.90;;;;;;5017226;28;20232;-51
2023/02/09 02:11:20;;;;;;;21.40;14.77;;;-0.80;99.90;;;;;;5067262;22;20590;-49
2023/02/09 02:13:48;;;;;;;23.30;15.40;;;-1.00;99.90;;;;;;5074629;28;20598;-53
2023/02/09 02:16:26;;;;;;;20.58;14.57;;;-1.10;99.90;;;;;;5073379;28;20295;-50
2023/02/09 02:19:08;;;;;;;23.20;15.07;;;-1.10;99.90;;;;;;5074408;28;20196;-50
2023/02/09 02:22:10;;;;;;;21.63;13.90;;;-1.00;99.90;;;;;;5073148;28;20230;-50
2023/02/09 02:25:22;;;;;;;22.95;14.65;;;-1.20;99.90;;;;;;5074445;28;20312;-51
2023/02/09 02:28:07;;;;;;;25.35;14.48;;;-0.90;99.90;;;;;;4992639;28;20208;-51
2023/02/09 02:30:54;;;;;;;23.73;14.13;;;-0.90;99.90;;;;;;5073395;28;20322;-50
2023/02/09 02:33:33;;;;;;;21.98;14.43;;;-0.90;99.90;;;;;;5074423;28;20204;-50
2023/02/09 02:36:05;;;;;;;23.60;13.75;;;-1.10;99.90;;;;;;5074210;28;20204;-49
2023/02/09 02:38:37;;;;;;;19.92;13.20;;;-1.10;99.90;;;;;;5074167;28;20677;-49
2023/02/09 02:41:12;;;;;;;22.40;14.88;;;-1.10;99.90;;;;;;5074203;28;20199;-49
2023/02/09 02:43:49;;;;;;;19.92;12.55;;;-1.20;99.90;;;;;;5072952;28;20199;-49
2023/02/09 02:46:25;;;;;;;21.05;13.20;;;-1.30;99.90;;;;;;5074531;28;20191;-50
2023/02/09 02:48:56;;;;;;;22.25;13.75;;;-1.00;99.90;;;;;;5073176;28;20223;-51
2023/02/09 02:51:29;;;;;;;21.45;14.25;;;-1.10;99.90;;;;;;5073839;28;20223;-50
2023/02/09 02:53:59;;;;;;;22.33;13.82;;;-1.80;99.90;;;;;;5072957;28;20205;-51
2023/02/09 02:56:31;;;;;;;22.10;15.05;;;-1.20;99.90;;;;;;5073911;28;20199;-50
2023/02/09 02:59:00;;;;;;;19.60;13.00;;;-1.10;99.90;;;;;;5073454;28;20192;-50
2023/02/09 03:01:33;;;;;;;23.60;13.65;;;-1.20;99.90;;;;;;5073839;28;20230;-52
2023/02/09 03:04:04;;;;;;;18.15;12.48;;;-1.10;99.90;;;;;;5073773;28;20200;-51
2023/02/09 03:06:32;;;;;;;19.48;13.23;;;-1.00;99.90;;;;;;5073750;28;20262;-52
2023/02/09 03:08:59;;;;;;;18.30;12.70;;;-1.30;99.90;;;;;;5073113;28;20588;-51
2023/02/09 03:11:34;;;;;;;21.75;13.55;;;-1.20;99.90;;;;;;5073214;28;20698;-50
2023/02/09 03:14:12;;;;;;;23.42;13.40;;;-1.30;99.90;;;;;;5073695;28;20200;-50
2023/02/09 03:16:45;;;;;;;21.83;13.88;;;-1.30;99.90;;;;;;5073344;28;20203;-49
2023/02/09 03:19:24;;;;;;;21.40;13.27;;;-1.20;99.90;;;;;;5073115;28;20196;-49
2023/02/09 03:21:55;;;;;;;18.50;12.55;;;-1.10;99.90;;;;;;5073272;28;20714;-49
2023/02/09 03:24:35;;;;;;;23.80;13.27;;;-0.80;99.90;;;;;;5073446;28;20199;-50
2023/02/09 03:27:10;;;;;;;18.20;12.25;;;-1.20;99.90;;;;;;5073372;28;20738;-50
2023/02/09 03:29:38;;;;;;;20.92;13.10;;;-1.90;99.90;;;;;;5073040;28;20558;-49
2023/02/09 03:32:06;;;;;;;20.02;13.20;;;-1.40;99.90;;;;;;5072939;28;20215;-50
2023/02/09 03:34:34;;;;;;;21.70;14.15;;;-1.10;99.90;;;;;;5073228;28;20191;-50
2023/02/09 03:37:01;;;;;;;20.35;12.60;;;-1.20;99.90;;;;;;5073089;28;20214;-50
2023/02/09 03:39:28;;;;;;;22.85;12.90;;;-1.40;99.90;;;;;;5072668;28;20198;-50
2023/02/09 03:41:55;;;;;;;22.15;13.30;;;-1.10;99.90;;;;;;5072939;28;20228;-50
2023/02/09 03:44:27;;;;;;;17.95;12.02;;;-1.20;99.90;;;;;;5072924;28;20196;-51
2023/02/09 03:46:56;;;;;;;22.40;13.38;;;-1.70;99.90;;;;;;5071667;28;20210;-51
2023/02/09 03:49:25;;;;;;;22.50;14.35;;;-1.30;99.90;;;;;;5072355;28;20226;-51
2023/02/09 03:51:53;;;;;;;20.00;13.65;;;-1.20;99.90;;;;;;5072670;28;20228;-51
2023/02/09 03:54:20;;;;;;;29.67;15.60;;;-1.90;99.90;;;;;;5072826;28;20198;-50
2023/02/09 03:56:47;;;;;;;21.38;12.90;;;-1.80;99.90;;;;;;5072537;28;20249;-51
2023/02/09 03:59:13;;;;;;;25.52;13.00;;;-1.10;99.90;;;;;;5072476;28;20570;-50
2023/02/09 04:01:40;;;;;;;21.65;13.73;;;-1.90;99.90;;;;;;5071864;28;20317;-50
2023/02/09 04:04:07;;;;;;;18.90;12.30;;;-1.40;99.90;;;;;;5072563;28;20220;-50
2023/02/09 04:06:34;;;;;;;19.65;12.75;;;-1.40;99.90;;;;;;5072626;28;20202;-49
2023/02/09 04:09:04;;;;;;;22.60;12.98;;;-1.20;99.90;;;;;;5071999;28;20195;-50
2023/02/09 04:11:30;;;;;;;22.20;12.80;;;-1.10;99.90;;;;;;5072287;28;20227;-52
2023/02/09 04:13:57;;;;;;;16.95;12.35;;;-1.20;99.90;;;;;;5072579;28;20199;-50
2023/02/09 04:16:24;;;;;;;20.52;12.45;;;-1.20;99.90;;;;;;5072417;28;20674;-50
2023/02/09 04:18:51;;;;;;;18.40;13.15;;;-1.40;99.90;;;;;;5071915;28;20205;-52
2023/02/09 04:21:17;;;;;;;20.70;13.90;;;-2.00;99.90;;;;;;5072245;28;20715;-51
2023/02/09 04:23:44;;;;;;;26.88;12.75;;;-1.20;99.90;;;;;;5072395;28;20248;-50
2023/02/09 04:26:12;;;;;;;17.27;12.90;;;-2.00;99.90;;;;;;5072152;28;20204;-54
2023/02/09 04:28:39;;;;;;;15.98;11.50;;;-1.40;99.90;;;;;;5071681;28;20211;-51
2023/02/09 04:31:05;;;;;;;19.52;12.40;;;-1.10;99.90;;;;;;5071861;28;20726;-50
2023/02/09 04:33:32;;;;;;;23.92;13.55;;;-1.20;99.90;;;;;;5072301;28;20202;-49
2023/02/09 04:35:59;;;;;;;18.15;12.98;;;-1.20;99.90;;;;;;5072019;28;20436;-50
2023/02/09 04:38:26;;;;;;;19.52;12.45;;;-1.20;99.90;;;;;;5071617;28;20203;-50
2023/02/09 04:40:54;;;;;;;19.73;12.27;;;-1.60;99.90;;;;;;5071676;28;20198;-49
2023/02/09 04:43:22;;;;;;;19.30;13.13;;;-1.30;99.90;;;;;;5070857;28;20221;-51
2023/02/09 04:45:49;;;;;;;20.38;13.05;;;-1.40;99.90;;;;;;5071919;28;20211;-51
2023/02/09 04:48:18;;;;;;;19.90;13.45;;;-1.40;99.90;;;;;;5071830;28;20204;-51
2023/02/09 04:50:45;;;;;;;21.02;13.60;;;-1.40;99.90;;;;;;5072039;28;20219;-51
2023/02/09 04:53:11;;;;;;;23.52;13.82;;;-1.40;99.90;;;;;;5071746;28;20223;-53
2023/02/09 04:55:38;;;;;;;24.45;14.13;;;-1.20;99.90;;;;;;5072256;28;20286;-52
2023/02/09 05:00:50;;;;;;;17.95;13.63;;;-1.70;99.90;;;;;;5071650;28;20555;-50
2023/02/09 05:03:17;;;;;;;22.83;14.30;;;-1.30;99.90;;;;;;5072168;28;20199;-51
2023/02/09 05:05:43;;;;;;;24.98;14.50;;;-1.40;99.90;;;;;;5070773;28;20206;-53
2023/02/09 05:08:10;;;;;;;22.33;14.43;;;-1.40;99.90;;;;;;5071678;28;20637;-50
2023/02/09 05:10:37;;;;;;;22.63;15.25;;;-1.20;99.90;;;;;;5071529;28;20223;-51
2023/02/09 05:13:03;;;;;;;20.48;13.75;;;-1.60;99.90;;;;;;5071369;28;20229;-50
2023/02/09 05:15:30;;;;;;;23.52;14.02;;;-1.60;99.90;;;;;;5071663;28;20203;-50
2023/02/09 05:17:58;;;;;;;22.70;13.90;;;-1.40;99.90;;;;;;5070207;28;20206;-50
2023/02/09 05:20:25;;;;;;;21.08;13.85;;;-1.40;99.90;;;;;;5071150;28;20196;-50
2023/02/09 05:22:51;;;;;;;22.27;14.02;;;-1.90;99.90;;;;;;5071192;28;20215;-49
2023/02/09 05:25:18;;;;;;;24.67;15.85;;;-1.20;99.90;;;;;;5071418;28;20207;-53
2023/02/09 05:27:45;;;;;;;25.55;17.15;;;-1.20;99.90;;;;;;5071682;28;20272;-50
2023/02/09 05:30:12;;;;;;;23.55;15.63;;;-1.50;99.90;;;;;;5070728;28;20230;-50
2023/02/09 05:32:39;;;;;;;24.27;15.18;;;-1.50;99.90;;;;;;5071173;28;20222;-50
2023/02/09 05:35:08;;;;;;;28.77;16.73;;;-1.50;99.90;;;;;;5071142;28;20680;-51
2023/02/09 05:37:34;;;;;;;24.80;14.60;;;-1.40;99.90;;;;;;5071133;28;20199;-50
2023/02/09 05:40:01;;;;;;;28.92;18.85;;;-1.60;99.90;;;;;;5070993;28;20502;-51
2023/02/09 05:42:28;;;;;;;31.50;17.42;;;-1.70;99.90;;;;;;5070973;28;20219;-50
2023/02/09 05:44:54;;;;;;;24.27;16.27;;;-1.70;99.90;;;;;;5071102;28;20198;-51
2023/02/09 05:47:23;;;;;;;20.30;14.40;;;-1.50;99.90;;;;;;5071019;28;20203;-50
2023/02/09 05:49:50;;;;;;;33.47;18.50;;;-1.40;99.90;;;;;;5070340;28;20216;-50
2023/02/09 05:52:19;;;;;;;21.80;13.88;;;-1.60;99.90;;;;;;5069706;28;20223;-51
2023/02/09 05:54:47;;;;;;;26.50;18.50;;;-1.30;99.90;;;;;;5070867;28;20218;-50
2023/02/09 05:57:15;;;;;;;23.75;14.75;;;-1.30;99.90;;;;;;5071840;28;20206;-50
2023/02/09 05:59:42;;;;;;;23.10;13.40;;;-1.50;99.90;;;;;;5070906;28;20188;-51
2023/02/09 06:02:09;;;;;;;28.35;14.90;;;-1.40;99.90;;;;;;5070793;28;20222;-50
2023/02/09 06:04:36;;;;;;;22.38;14.32;;;-1.30;99.90;;;;;;5071516;28;20199;-51
2023/02/09 06:07:02;;;;;;;22.85;14.68;;;-1.30;99.90;;;;;;5071069;28;20242;-50
2023/02/09 06:09:30;;;;;;;27.50;14.32;;;-1.40;99.90;;;;;;5069337;28;20204;-49
2023/02/09 06:11:57;;;;;;;25.42;15.05;;;-1.60;99.90;;;;;;5070741;28;20236;-53
2023/02/09 06:14:24;;;;;;;19.48;12.68;;;-1.50;99.90;;;;;;5071026;28;20206;-50
2023/02/09 06:16:51;;;;;;;24.85;15.00;;;-1.40;99.90;;;;;;5070737;28;20547;-51
2023/02/09 06:19:20;;;;;;;19.73;14.02;;;-1.40;99.90;;;;;;5070767;28;20212;-52
2023/02/09 06:21:47;;;;;;;22.02;15.02;;;-1.50;99.90;;;;;;5070328;28;20689;-52
2023/02/09 06:24:15;;;;;;;22.00;14.25;;;-1.40;99.90;;;;;;5072947;28;20555;-53
2023/02/09 06:26:43;;;;;;;21.75;14.57;;;-1.40;99.90;;;;;;5074385;28;20283;-52
2023/02/09 06:29:10;;;;;;;21.58;14.27;;;-1.40;99.90;;;;;;5073766;28;20206;-52
2023/02/09 06:31:36;;;;;;;22.35;13.88;;;-1.40;99.90;;;;;;5073970;28;20227;-51
2023/02/09 06:34:04;;;;;;;21.05;13.70;;;-1.40;99.90;;;;;;5074305;28;20298;-52
2023/02/09 06:36:31;;;;;;;26.90;14.43;;;-1.70;99.90;;;;;;5073916;28;20766;-52
2023/02/09 06:38:58;;;;;;;24.98;16.13;;;-1.30;99.90;;;;;;5073602;28;20249;-53
2023/02/09 06:41:24;;;;;;;21.67;14.65;;;-1.60;99.90;;;;;;5073616;28;20563;-51
2023/02/09 06:43:52;;;;;;;21.40;14.57;;;-1.50;99.90;;;;;;5073464;28;20690;-50
2023/02/09 06:46:19;;;;;;;25.88;14.57;;;-1.50;99.90;;;;;;5073969;28;20207;-51
2023/02/09 06:48:46;;;;;;;29.67;15.25;;;-1.80;99.90;;;;;;5073271;28;20219;-51
2023/02/09 06:51:15;;;;;;;25.63;15.73;;;-1.50;99.90;;;;;;5074188;28;20562;-50
2023/02/09 06:53:42;;;;;;;24.40;15.07;;;-1.70;99.90;;;;;;5073500;28;20215;-53
2023/02/09 06:56:09;;;;;;;26.98;14.98;;;-1.40;99.90;;;;;;5072326;28;20210;-53
2023/02/09 06:58:37;;;;;;;37.30;17.25;;;-1.40;99.90;;;;;;5073009;28;20206;-53
2023/02/09 07:01:07;;;;;;;38.13;16.35;;;-1.60;99.90;;;;;;5073379;28;20192;-52
2023/02/09 07:03:34;;;;;;;32.00;15.43;;;-1.40;99.90;;;;;;5073570;28;20196;-52
2023/02/09 07:06:05;;;;;;;20.65;12.25;;;-1.40;99.90;;;;;;5073253;28;20196;-53
2023/02/09 07:08:32;;;;;;;20.02;13.23;;;-1.60;99.90;;;;;;5073177;28;20535;-51
2023/02/09 07:11:02;;;;;;;19.77;13.70;;;-1.30;99.90;;;;;;5073061;28;20226;-53
2023/02/09 07:13:28;;;;;;;26.55;14.77;;;-1.50;99.90;;;;;;5073325;28;20442;-52
2023/02/09 07:15:56;;;;;;;31.92;15.82;;;-1.60;99.90;;;;;;5055121;28;20203;-53
2023/02/09 07:18:24;;;;;;;31.05;15.32;;;-1.30;99.90;;;;;;5072296;28;20668;-52
2023/02/09 07:20:54;;;;;;;25.45;14.70;;;-1.10;99.90;;;;;;5072912;28;20352;-52
2023/02/09 07:23:21;;;;;;;31.75;15.18;;;-1.90;99.90;;;;;;5055075;28;20260;-53
2023/02/09 07:25:48;;;;;;;24.02;15.93;;;-1.10;99.90;;;;;;5072823;28;20695;-52
2023/02/09 07:28:15;;;;;;;21.80;14.88;;;-1.40;99.90;;;;;;5072328;28;20205;-51
2023/02/09 07:30:41;;;;;;;28.48;14.35;;;-1.40;99.90;;;;;;5072947;28;20223;-53
2023/02/09 07:33:08;;;;;;;26.88;15.20;;;-1.00;99.90;;;;;;5072762;28;20219;-53
2023/02/09 07:35:39;;;;;;;21.00;14.20;;;-0.90;99.90;;;;;;5071551;28;20199;-51
2023/02/09 07:38:06;;;;;;;24.88;14.27;;;-1.10;99.90;;;;;;5072897;28;20625;-52
2023/02/09 07:40:32;;;;;;;31.08;15.93;;;-0.90;99.90;;;;;;5072659;28;20191;-52
2023/02/09 07:42:59;;;;;;;24.75;15.88;;;-1.10;99.90;;;;;;5071225;28;20318;-52
2023/02/09 07:45:25;;;;;;;28.25;15.73;;;-1.00;99.90;;;;;;5072283;28;20234;-52
2023/02/09 07:47:52;;;;;;;27.13;15.43;;;-1.00;99.90;;;;;;5072487;28;20195;-52
2023/02/09 07:50:19;;;;;;;24.30;15.05;;;-0.70;99.90;;;;;;5072251;28;20211;-52
2023/02/09 07:52:47;;;;;;;26.20;16.20;;;-0.80;99.90;;;;;;5072143;28;20222;-53
2023/02/09 07:55:14;;;;;;;26.23;15.63;;;-0.80;99.90;;;;;;5072222;28;20203;-53
2023/02/09 07:57:40;;;;;;;25.30;15.23;;;-0.70;99.90;;;;;;5071024;28;20203;-52
2023/02/09 08:00:08;;;;;;;26.40;15.65;;;-0.60;99.90;;;;;;5071694;28;20199;-53
2023/02/09 08:02:42;;;;;;;23.77;15.25;;;-0.90;99.90;;;;;;5071998;28;20224;-52
2023/02/09 08:05:16;;;;;;;27.25;15.68;;;-0.90;99.90;;;;;;5072164;28;20672;-52
2023/02/09 08:07:43;;;;;;;30.65;16.48;;;-0.40;99.90;;;;;;5072147;28;20203;-52
2023/02/09 08:10:11;;;;;;;24.33;15.38;;;-0.90;99.90;;;;;;5071609;28;20212;-53
2023/02/09 08:15:23;;;;;;;27.55;18.13;;;-0.70;99.90;;;;;;5071504;28;20191;-55
2023/02/09 08:17:52;;;;;;;25.80;15.40;;;-0.30;99.90;;;;;;5071936;28;20214;-54
2023/02/09 08:20:23;;;;;;;23.70;14.10;;;-0.40;99.90;;;;;;5071471;28;20192;-53
2023/02/09 08:22:52;;;;;;;20.75;14.68;;;-1.10;99.90;;;;;;5070381;28;20226;-54
2023/02/09 08:25:23;;;;;;;23.52;15.60;;;-0.60;99.90;;;;;;5072076;28;20196;-54
2023/02/09 08:27:50;;;;;;;23.83;14.48;;;-0.30;99.90;;;;;;5070215;28;20204;-55
2023/02/09 08:30:18;;;;;;;21.70;14.50;;;-0.40;99.90;;;;;;5071442;28;20618;-55
2023/02/09 08:32:45;;;;;;;24.05;14.57;;;-0.20;99.90;;;;;;5071288;28;20235;-53
2023/02/09 08:35:11;;;;;;;23.05;13.90;;;-0.80;99.90;;;;;;5071661;28;20193;-53
2023/02/09 08:37:38;;;;;;;20.92;14.23;;;-0.30;99.90;;;;;;5071542;28;20200;-53
2023/02/09 08:40:05;;;;;;;27.13;15.68;;;-0.40;99.90;;;;;;5070834;28;20268;-53
2023/02/09 08:42:33;;;;;;;23.33;13.63;;;-0.40;99.90;;;;;;5071328;28;20243;-54
2023/02/09 08:45:00;;;;;;;25.95;14.85;;;-0.50;99.90;;;;;;5071218;28;20198;-56
2023/02/09 08:47:26;;;;;;;22.25;13.15;;;-0.20;99.90;;;;;;5071808;28;20204;-55
2023/02/09 08:49:53;;;;;;;24.33;15.55;;;-0.80;99.90;;;;;;5071046;28;20214;-55
2023/02/09 08:52:20;;;;;;;26.13;14.90;;;0.10;99.90;;;;;;5071276;28;20728;-55
2023/02/09 08:54:46;;;;;;;25.42;14.23;;;0.30;99.90;;;;;;5069853;28;20208;-54
2023/02/09 08:57:13;;;;;;;37.30;19.88;;;0.10;99.90;;;;;;5071192;28;20212;-52
2023/02/09 08:59:41;;;;;;;27.30;16.75;;;0.20;99.90;;;;;;5071284;28;20636;-53
2023/02/09 09:02:08;;;;;;;22.67;14.27;;;0.20;99.90;;;;;;5071814;28;20219;-54
2023/02/09 09:04:34;;;;;;;23.52;14.27;;;0.40;99.90;;;;;;5071463;28;20666;-54
2023/02/09 09:07:01;;;;;;;25.45;15.20;;;0.20;99.90;;;;;;5071316;28;20628;-56
2023/02/09 09:09:27;;;;;;;20.98;13.50;;;0.40;99.90;;;;;;5071404;28;20196;-53
2023/02/09 09:11:54;;;;;;;23.02;14.10;;;0.20;99.90;;;;;;5070707;28;20324;-53
2023/02/09 09:14:22;;;;;;;28.70;18.52;;;0.40;99.90;;;;;;5071475;28;20230;-54
2023/02/09 09:16:50;;;;;;;27.58;16.67;;;0.60;99.90;;;;;;5053043;28;20214;-54
2023/02/09 09:19:17;;;;;;;22.27;14.38;;;0.50;99.90;;;;;;5070768;28;20239;-54
2023/02/09 09:21:43;;;;;;;25.73;14.85;;;0.60;99.90;;;;;;5071065;28;20217;-55
2023/02/09 09:24:10;;;;;;;24.35;13.63;;;0.60;99.90;;;;;;5071091;28;20197;-54
2023/02/09 09:26:36;;;;;;;21.90;13.68;;;0.70;99.90;;;;;;5071199;28;20197;-56
2023/02/09 09:29:03;;;;;;;24.10;13.80;;;0.60;99.90;;;;;;5070730;28;20193;-56
2023/02/09 09:31:32;;;;;;;20.58;13.60;;;0.80;99.80;;;;;;5070672;28;20242;-52
2023/02/09 09:34:00;;;;;;;26.02;14.35;;;0.00;99.10;;;;;;5071111;28;20667;-56
2023/02/09 09:36:26;;;;;;;22.80;13.75;;;0.70;99.50;;;;;;5071010;28;20202;-54
2023/02/09 09:38:53;;;;;;;26.50;13.90;;;0.80;99.40;;;;;;5071121;28;20194;-55
2023/02/09 09:41:25;;;;;;;20.27;13.57;;;0.40;99.00;;;;;;5070713;28;20215;-54
2023/02/09 09:43:53;;;;;;;22.05;14.52;;;0.80;99.10;;;;;;5071006;28;20191;-55
2023/02/09 09:46:21;;;;;;;21.17;13.20;;;0.90;99.00;;;;;;5071122;28;20199;-55
2023/02/09 09:48:52;;;;;;;23.42;13.27;;;1.10;99.00;;;;;;5069260;28;20199;-53
2023/02/09 09:51:30;;;;;;;22.38;13.32;;;1.00;98.90;;;;;;5053025;28;20233;-55
2023/02/09 09:53:59;;;;;;;24.60;14.70;;;1.20;98.70;;;;;;5071121;28;20208;-54
2023/02/09 09:56:28;;;;;;;25.88;14.35;;;1.20;98.30;;;;;;5071164;28;20236;-55
2023/02/09 09:58:55;;;;;;;26.45;15.93;;;1.10;98.50;;;;;;5071612;28;20429;-54
2023/02/09 10:01:22;;;;;;;20.10;14.68;;;1.30;98.70;;;;;;5074790;28;20576;-54
2023/02/09 10:03:49;;;;;;;26.13;15.68;;;1.70;98.20;;;;;;5074885;28;20298;-53
2023/02/09 10:06:18;;;;;;;22.33;13.90;;;1.50;97.90;;;;;;5074007;28;20906;-55
2023/02/09 10:08:51;;;;;;;26.83;15.32;;;1.80;98.00;;;;;;5074046;28;20902;-55
2023/02/09 10:11:22;;;;;;;38.00;14.90;;;1.80;97.60;;;;;;5074439;28;20223;-56
2023/02/09 10:13:51;;;;;;;19.83;11.75;;;1.90;97.50;;;;;;5074667;28;20290;-54
2023/02/09 10:16:20;;;;;;;22.95;12.45;;;1.70;97.40;;;;;;5074307;28;20195;-54
2023/02/09 10:18:50;;;;;;;20.83;12.88;;;1.40;97.20;;;;;;5074037;28;20196;-55
2023/02/09 10:21:17;;;;;;;24.67;12.98;;;1.70;96.80;;;;;;5074106;28;20219;-54
2023/02/09 10:23:47;;;;;;;24.40;12.85;;;1.80;96.90;;;;;;5074127;28;20206;-55
2023/02/09 10:26:22;;;;;;;28.65;12.85;;;2.00;96.90;;;;;;5072238;28;20210;-55
2023/02/09 10:28:51;;;;;;;28.13;13.05;;;2.00;96.90;;;;;;5053769;28;20195;-55
2023/02/09 10:31:23;;;;;;;18.55;11.68;;;1.10;95.80;;;;;;5056475;28;20241;-55
2023/02/09 10:33:57;;;;;;;24.70;12.88;;;2.10;96.50;;;;;;5069267;28;20204;-55
2023/02/09 10:36:27;;;;;;;24.52;12.68;;;1.80;96.40;;;;;;5071661;28;20204;-55
2023/02/09 10:39:05;;;;;;;23.73;12.63;;;1.40;96.00;;;;;;5061825;28;20207;-54
2023/02/09 10:41:34;;;;;;;20.33;12.38;;;2.30;96.60;;;;;;5074069;28;20226;-55
2023/02/09 10:44:06;;;;;;;21.00;12.40;;;2.10;96.10;;;;;;5057061;28;20215;-53
2023/02/09 10:46:33;;;;;;;27.48;12.82;;;2.10;95.90;;;;;;5054118;28;20204;-56
2023/02/09 10:49:00;;;;;;;21.63;12.23;;;2.20;95.90;;;;;;5073167;28;20203;-53
2023/02/09 10:51:28;;;;;;;20.50;11.80;;;1.70;95.60;;;;;;5073773;28;20219;-55
2023/02/09 10:54:02;;;;;;;23.65;13.02;;;2.20;95.90;;;;;;5074019;28;20207;-55
2023/02/09 10:56:35;;;;;;;23.38;13.68;;;2.40;95.50;;;;;;5072650;28;20445;-55
2023/02/09 10:59:13;;;;;;;20.90;12.40;;;2.60;95.30;;;;;;5073510;28;20725;-53
2023/02/09 11:01:42;;;;;;;18.77;11.55;;;2.70;94.80;;;;;;5073663;28;20211;-53
2023/02/09 11:04:21;;;;;;;18.65;11.82;;;2.50;94.30;;;;;;5073430;28;20207;-55
2023/02/09 11:06:52;;;;;;;22.08;12.43;;;2.50;94.10;;;;;;5055251;28;20539;-56
2023/02/09 11:09:26;;;;;;;18.33;11.35;;;2.60;94.10;;;;;;5073021;28;20203;-55
2023/02/09 11:11:53;;;;;;;17.90;12.35;;;2.60;93.80;;;;;;5073213;28;20231;-56
2023/02/09 11:14:20;;;;;;;14.75;10.57;;;2.60;93.20;;;;;;5072982;28;20565;-55
2023/02/09 11:17:04;;;;;;;17.40;9.77;;;2.70;93.40;;;;;;5073066;28;20199;-54
2023/02/09 11:19:54;;;;;;;26.17;13.07;;;2.70;93.00;;;;;;5073031;28;20256;-54
2023/02/09 11:22:32;;;;;;;23.83;12.43;;;2.90;93.20;;;;;;5054623;28;20590;-54
2023/02/09 11:25:16;;;;;;;22.25;11.15;;;2.80;93.60;;;;;;5072933;28;20210;-54
2023/02/09 11:27:54;;;;;;;23.48;11.43;;;2.60;93.50;;;;;;5054920;28;20703;-55
2023/02/09 11:30:40;;;;;;;22.80;11.57;;;2.70;94.00;;;;;;5072653;28;20192;-55
2023/02/09 11:33:17;;;;;;;29.23;14.65;;;3.00;94.20;;;;;;5052954;28;20514;-54
2023/02/09 11:35:51;;;;;;;21.42;11.43;;;2.80;94.10;;;;;;5060069;28;20233;-56
2023/02/09 11:38:26;;;;;;;17.25;10.55;;;2.20;93.80;;;;;;5063042;28;20525;-56
2023/02/09 11:40:57;;;;;;;23.38;10.93;;;2.80;93.00;;;;;;5072312;28;20213;-54
2023/02/09 11:43:30;;;;;;;25.42;12.00;;;2.70;93.30;;;;;;5072896;28;20199;-55
2023/02/09 11:46:02;;;;;;;21.63;10.70;;;2.70;93.00;;;;;;5072727;28;20199;-54
2023/02/09 11:48:32;;;;;;;18.23;11.95;;;2.90;93.00;;;;;;5072707;28;20587;-54
2023/02/09 11:51:06;;;;;;;24.23;12.98;;;3.00;92.90;;;;;;5071885;28;20461;-56
2023/02/09 11:53:40;;;;;;;20.00;11.68;;;3.30;93.30;;;;;;5072609;28;20477;-57
2023/02/09 11:56:12;;;;;;;18.25;10.60;;;2.60;92.50;;;;;;5072624;28;20206;-55
2023/02/09 11:58:45;;;;;;;20.50;13.40;;;3.30;92.70;;;;;;5072200;28;20203;-55
2023/02/09 12:01:20;;;;;;;24.15;13.63;;;3.70;93.30;;;;;;5072305;28;20223;-56
2023/02/09 12:03:57;;;;;;;20.13;11.82;;;3.20;93.00;;;;;;5072438;28;20235;-54
2023/02/09 12:06:24;;;;;;;18.75;12.25;;;2.90;92.90;;;;;;5053941;28;20226;-55
2023/02/09 12:09:01;;;;;;;16.13;11.32;;;3.50;93.60;;;;;;5068469;28;20199;-55
2023/02/09 12:11:38;;;;;;;21.05;12.13;;;3.50;93.50;;;;;;5071771;28;20227;-54
2023/02/09 12:14:26;;;;;;;25.40;12.35;;;3.30;93.80;;;;;;5054167;28;20276;-55
2023/02/09 12:17:00;;;;;;;19.15;12.10;;;3.30;93.20;;;;;;5054121;28;20211;-56
2023/02/09 12:19:34;;;;;;;22.25;12.50;;;3.10;92.90;;;;;;5071478;28;20589;-55
2023/02/09 12:22:39;;;;;;;46.38;16.13;;;3.50;92.90;;;;;;5071216;28;20210;-55
2023/02/09 12:25:18;;;;;;;31.75;12.77;;;3.70;93.20;;;;;;5068691;28;20214;-53
2023/02/09 12:28:11;;;;;;;19.77;12.15;;;3.60;93.20;;;;;;5071695;28;20255;-53
2023/02/09 12:31:14;;;;;;;16.33;10.75;;;3.80;93.30;;;;;;5072423;28;20556;-55
2023/02/09 12:34:17;;;;;;;23.67;10.35;;;3.60;93.40;;;;;;5072039;28;20309;-55
2023/02/09 12:37:16;;;;;;;21.17;10.30;;;3.70;93.30;;;;;;5048672;28;20760;-54
2023/02/09 12:40:17;;;;;;;20.95;10.32;;;4.20;92.70;;;;;;5071349;28;20616;-54
2023/02/09 12:42:45;;;;;;;20.33;9.32;;;3.70;91.70;;;;;;5066128;28;20219;-58
2023/02/09 12:45:35;;;;;;;22.98;11.50;;;3.60;91.70;;;;;;5071439;28;20195;-52
2023/02/09 12:48:12;;;;;;;23.48;10.32;;;3.60;91.60;;;;;;5071368;28;20222;-55
2023/02/09 12:50:51;;;;;;;19.40;9.77;;;3.70;91.90;;;;;;5071459;28;20191;-54
2023/02/09 12:53:46;;;;;;;19.23;12.15;;;3.60;91.80;;;;;;5056179;28;20450;-51